createdAt,value
2018-02-20T00:02:03.629Z,1.70
2018-02-20T00:04:31.245Z,1.70
2018-02-20T00:06:59.578Z,1.70
2018-02-20T00:09:27.140Z,1.70
2018-02-20T00:11:54.751Z,1.80
2018-02-20T00:14:22.375Z,1.80
2018-02-20T00:16:50.051Z,1.90
2018-02-20T00:19:17.701Z,1.90
2018-02-20T00:21:46.059Z,2.00
2018-02-20T00:24:13.649Z,2.00
2018-02-20T00:26:41.217Z,2.00
2018-02-20T00:29:09.590Z,2.10
2018-02-20T00:31:37.938Z,2.10
2018-02-20T00:34:05.508Z,2.10
2018-02-20T00:36:33.213Z,2.20
2018-02-20T00:39:00.830Z,2.20
2018-02-20T00:41:28.487Z,2.20
2018-02-20T00:43:56.056Z,2.20
2018-02-20T00:46:23.679Z,2.20
2018-02-20T00:48:51.244Z,2.20
2018-02-20T00:51:18.813Z,2.20
2018-02-20T00:53:46.420Z,2.20
2018-02-20T00:56:14.773Z,2.20
2018-02-20T00:58:42.403Z,2.20
2018-02-20T01:01:09.961Z,2.20
2018-02-20T01:03:37.533Z,2.20
2018-02-20T01:06:05.161Z,2.20
2018-02-20T01:08:32.733Z,2.10
2018-02-20T01:11:00.315Z,2.00
2018-02-20T01:13:27.915Z,2.00
2018-02-20T01:15:56.268Z,1.90
2018-02-20T01:18:23.905Z,1.90
2018-02-20T01:20:51.486Z,1.90
2018-02-20T01:23:19.093Z,1.80
2018-02-20T01:25:46.724Z,1.80
2018-02-20T01:28:14.281Z,1.90
2018-02-20T01:30:41.912Z,1.80
2018-02-20T01:33:09.471Z,1.90
2018-02-20T01:35:37.044Z,1.90
2018-02-20T01:38:04.650Z,1.90
2018-02-20T01:40:32.219Z,2.00
2018-02-20T01:42:59.813Z,1.90
2018-02-20T01:45:27.392Z,2.00
2018-02-20T01:47:55.003Z,2.00
2018-02-20T01:50:22.572Z,2.00
2018-02-20T01:52:50.153Z,2.00
2018-02-20T01:55:17.748Z,1.90
2018-02-20T01:57:45.369Z,1.90
2018-02-20T02:00:12.951Z,1.90
2018-02-20T02:02:40.506Z,2.00
2018-02-20T02:05:08.128Z,2.00
2018-02-20T02:07:35.694Z,2.10
2018-02-20T02:10:03.254Z,2.00
2018-02-20T02:12:30.861Z,2.00
2018-02-20T02:14:58.428Z,2.00
2018-02-20T02:17:26.048Z,2.00
2018-02-20T02:19:53.620Z,2.00
2018-02-20T02:22:21.198Z,2.00
2018-02-20T02:24:48.813Z,2.00
2018-02-20T02:27:16.404Z,2.00
2018-02-20T02:29:44.001Z,1.90
2018-02-20T02:32:12.352Z,1.90
2018-02-20T02:34:39.941Z,1.90
2018-02-20T02:37:08.317Z,1.90
2018-02-20T02:39:36.652Z,1.90
2018-02-20T02:42:04.268Z,1.80
2018-02-20T02:44:32.884Z,1.80
2018-02-20T02:47:00.455Z,1.80
2018-02-20T02:49:28.060Z,1.80
2018-02-20T02:51:56.416Z,1.60
2018-02-20T02:54:24.034Z,1.60
2018-02-20T02:56:51.621Z,1.70
2018-02-20T02:59:19.196Z,1.60
2018-02-20T03:01:46.779Z,1.70
2018-02-20T03:04:15.143Z,1.70
2018-02-20T03:06:42.696Z,1.70
2018-02-20T03:09:10.262Z,1.70
2018-02-20T03:11:37.844Z,1.80
2018-02-20T03:14:06.215Z,1.80
2018-02-20T03:16:34.555Z,1.80
2018-02-20T03:19:02.161Z,1.80
2018-02-20T03:21:30.497Z,1.80
2018-02-20T03:23:58.069Z,1.80
2018-02-20T03:26:25.698Z,1.90
2018-02-20T03:28:53.265Z,1.90
2018-02-20T03:31:20.832Z,1.90
2018-02-20T03:33:48.410Z,1.90
2018-02-20T03:36:15.981Z,2.00
2018-02-20T03:38:43.567Z,1.90
2018-02-20T03:41:11.145Z,1.90
2018-02-20T03:43:38.734Z,1.90
2018-02-20T03:46:06.304Z,1.80
2018-02-20T03:48:33.907Z,1.80
2018-02-20T03:51:01.483Z,1.90
2018-02-20T03:53:29.053Z,1.90
2018-02-20T03:55:56.656Z,2.00
2018-02-20T03:58:24.237Z,2.00
2018-02-20T04:00:52.582Z,2.00
2018-02-20T04:03:20.158Z,2.00
2018-02-20T04:05:47.712Z,2.00
2018-02-20T04:08:15.315Z,2.10
2018-02-20T04:10:42.865Z,2.00
2018-02-20T04:13:10.433Z,2.00
2018-02-20T04:15:38.038Z,2.00
2018-02-20T04:18:05.613Z,2.10
2018-02-20T04:20:33.210Z,2.00
2018-02-20T04:23:00.769Z,2.00
2018-02-20T04:25:28.360Z,2.10
2018-02-20T04:27:56.720Z,2.00
2018-02-20T04:30:24.302Z,2.00
2018-02-20T04:32:51.892Z,1.90
2018-02-20T04:35:19.454Z,1.80
2018-02-20T04:37:47.013Z,1.90
2018-02-20T04:40:14.598Z,1.90
2018-02-20T04:42:42.188Z,2.00
2018-02-20T04:45:09.772Z,1.90
2018-02-20T04:47:37.361Z,1.90
2018-02-20T04:50:05.693Z,1.80
2018-02-20T04:52:33.258Z,1.80
2018-02-20T04:55:00.858Z,1.90
2018-02-20T04:57:29.214Z,2.00
2018-02-20T04:59:56.772Z,2.00
2018-02-20T05:02:24.378Z,2.00
2018-02-20T05:04:51.960Z,2.00
2018-02-20T05:07:19.548Z,2.00
2018-02-20T05:09:47.167Z,2.00
2018-02-20T05:12:14.730Z,2.00
2018-02-20T05:14:42.307Z,2.00
2018-02-20T05:17:09.900Z,2.00
2018-02-20T05:19:39.082Z,1.90
2018-02-20T05:22:06.686Z,1.90
2018-02-20T05:24:35.027Z,1.90
2018-02-20T05:27:02.599Z,1.90
2018-02-20T05:29:30.200Z,1.80
2018-02-20T05:31:57.776Z,1.80
2018-02-20T05:34:25.369Z,1.80
2018-02-20T05:36:52.930Z,1.90
2018-02-20T05:39:20.515Z,1.80
2018-02-20T05:41:48.865Z,1.60
2018-02-20T05:44:16.461Z,1.60
2018-02-20T05:46:44.902Z,1.50
2018-02-20T05:49:13.277Z,1.40
2018-02-20T05:51:40.868Z,1.40
2018-02-20T05:54:08.445Z,1.40
2018-02-20T05:56:36.062Z,1.40
2018-02-20T05:59:03.624Z,1.50
2018-02-20T06:01:31.178Z,1.50
2018-02-20T06:03:58.746Z,1.50
2018-02-20T06:06:26.307Z,1.50
2018-02-20T06:08:53.897Z,1.60
2018-02-20T06:11:22.235Z,1.60
2018-02-20T06:13:49.844Z,1.60
2018-02-20T06:16:18.176Z,1.60
2018-02-20T06:18:45.735Z,1.60
2018-02-20T06:21:13.319Z,1.60
2018-02-20T06:23:40.894Z,1.50
2018-02-20T06:26:09.251Z,1.40
2018-02-20T06:28:36.818Z,1.40
2018-02-20T06:31:04.403Z,1.50
2018-02-20T06:33:31.988Z,1.50
2018-02-20T06:35:59.572Z,1.50
2018-02-20T06:38:27.169Z,1.50
2018-02-20T06:40:55.518Z,1.50
2018-02-20T06:43:23.105Z,1.40
2018-02-20T06:45:51.458Z,1.40
2018-02-20T06:48:19.037Z,1.40
2018-02-20T06:50:46.631Z,1.50
2018-02-20T06:53:14.210Z,1.60
2018-02-20T06:55:41.827Z,1.60
2018-02-20T06:58:09.409Z,1.70
2018-02-20T07:00:37.012Z,1.80
2018-02-20T07:03:04.562Z,1.80
2018-02-20T07:05:32.158Z,1.90
2018-02-20T07:07:59.727Z,2.00
2018-02-20T07:10:28.051Z,2.10
2018-02-20T07:12:55.664Z,2.10
2018-02-20T07:15:24.010Z,2.00
2018-02-20T07:17:51.576Z,1.90
2018-02-20T07:20:19.193Z,2.00
2018-02-20T07:22:46.791Z,1.80
2018-02-20T07:25:14.365Z,1.80
2018-02-20T07:27:41.955Z,1.80
2018-02-20T07:30:10.292Z,2.00
2018-02-20T07:32:37.887Z,2.00
2018-02-20T07:35:05.450Z,2.10
2018-02-20T07:37:33.788Z,2.20
2018-02-20T07:40:01.382Z,2.20
2018-02-20T07:42:29.715Z,2.40
2018-02-20T07:44:57.300Z,2.40
2018-02-20T07:47:24.893Z,2.40
2018-02-20T07:49:52.476Z,2.40
2018-02-20T07:52:20.061Z,2.40
2018-02-20T07:54:47.622Z,2.20
2018-02-20T07:57:15.198Z,2.20
2018-02-20T07:59:42.802Z,2.40
2018-02-20T08:02:10.369Z,2.40
2018-02-20T08:04:37.939Z,2.50
2018-02-20T08:07:05.527Z,2.40
2018-02-20T08:09:33.139Z,2.40
2018-02-20T08:12:00.717Z,2.40
2018-02-20T08:14:28.292Z,2.20
2018-02-20T08:16:55.912Z,2.30
2018-02-20T08:19:23.491Z,2.50
2018-02-20T08:21:51.067Z,2.60
2018-02-20T08:24:18.643Z,2.70
2018-02-20T08:26:46.200Z,2.70
2018-02-20T08:29:13.782Z,2.80
2018-02-20T08:31:41.360Z,2.80
2018-02-20T08:34:09.716Z,2.60
2018-02-20T08:36:37.289Z,2.60
2018-02-20T08:39:05.649Z,2.40
2018-02-20T08:41:33.239Z,2.40
2018-02-20T08:44:01.563Z,2.60
2018-02-20T08:46:29.139Z,2.60
2018-02-20T08:48:56.731Z,2.70
2018-02-20T08:51:25.076Z,2.70
2018-02-20T08:53:52.674Z,2.70
2018-02-20T08:56:21.022Z,2.80
2018-02-20T08:58:48.624Z,2.80
2018-02-20T09:01:16.228Z,2.90
2018-02-20T09:03:43.805Z,2.90
2018-02-20T09:06:11.384Z,3.00
2018-02-20T09:08:39.734Z,3.00
2018-02-20T09:11:07.316Z,3.00
2018-02-20T09:13:34.898Z,3.00
2018-02-20T09:16:02.490Z,2.90
2018-02-20T09:18:30.072Z,2.90
2018-02-20T09:20:57.671Z,2.90
2018-02-20T09:23:26.012Z,2.80
2018-02-20T09:25:53.648Z,2.80
2018-02-20T09:28:21.198Z,2.90
2018-02-20T09:30:48.769Z,2.90
2018-02-20T09:33:16.355Z,3.00
2018-02-20T09:35:43.939Z,3.10
2018-02-20T09:38:12.281Z,3.20
2018-02-20T09:40:39.872Z,3.20
2018-02-20T09:43:08.226Z,3.30
2018-02-20T09:45:35.810Z,3.20
2018-02-20T09:48:04.141Z,3.30
2018-02-20T09:50:31.732Z,3.30
2018-02-20T09:52:59.294Z,3.40
2018-02-20T09:55:26.852Z,3.60
2018-02-20T09:57:54.446Z,3.50
2018-02-20T10:00:22.773Z,3.60
2018-02-20T10:02:50.338Z,3.50
2018-02-20T10:05:17.918Z,3.60
2018-02-20T10:07:45.479Z,3.40
2018-02-20T10:10:13.061Z,3.30
2018-02-20T10:12:41.396Z,3.40
2018-02-20T10:15:08.974Z,3.30
2018-02-20T10:17:36.548Z,3.40
2018-02-20T10:20:04.935Z,3.60
2018-02-20T10:22:33.252Z,3.70
2018-02-20T10:25:00.809Z,3.70
2018-02-20T10:27:28.393Z,3.60
2018-02-20T10:29:55.996Z,3.70
2018-02-20T10:32:24.354Z,3.70
2018-02-20T10:34:51.918Z,3.70
2018-02-20T10:37:20.262Z,3.70
2018-02-20T10:39:47.867Z,3.80
2018-02-20T10:42:16.195Z,3.70
2018-02-20T10:44:43.800Z,3.70
2018-02-20T10:47:12.121Z,3.70
2018-02-20T10:49:39.697Z,3.70
2018-02-20T10:52:07.298Z,3.70
2018-02-20T10:54:35.676Z,3.60
2018-02-20T10:57:04.007Z,3.60
2018-02-20T10:59:31.590Z,3.60
2018-02-20T11:01:59.159Z,3.50
2018-02-20T11:04:26.730Z,3.50
2018-02-20T11:06:55.115Z,3.70
2018-02-20T11:09:23.497Z,4.00
2018-02-20T11:11:51.067Z,4.00
2018-02-20T11:14:18.679Z,4.10
2018-02-20T11:16:46.260Z,4.00
2018-02-20T11:19:13.828Z,4.10
2018-02-20T11:21:42.181Z,4.00
2018-02-20T11:24:09.763Z,4.00
2018-02-20T11:26:38.099Z,4.00
2018-02-20T11:29:05.664Z,4.00
2018-02-20T11:31:33.244Z,3.90
2018-02-20T11:34:00.838Z,4.10
2018-02-20T11:36:29.170Z,4.50
2018-02-20T11:38:56.792Z,4.50
2018-02-20T11:41:24.363Z,4.50
2018-02-20T11:43:51.990Z,4.70
2018-02-20T11:46:19.556Z,4.80
2018-02-20T11:48:47.889Z,4.80
2018-02-20T11:51:15.480Z,4.80
2018-02-20T11:53:43.804Z,4.40
2018-02-20T11:56:11.397Z,4.40
2018-02-20T11:58:38.997Z,4.30
2018-02-20T12:01:06.570Z,4.30
2018-02-20T12:03:34.134Z,4.20
2018-02-20T12:06:01.749Z,4.40
2018-02-20T12:08:29.344Z,4.50
2018-02-20T12:10:56.916Z,4.50
2018-02-20T12:13:24.516Z,4.50
2018-02-20T12:15:52.087Z,4.50
2018-02-20T12:18:19.682Z,4.40
2018-02-20T12:20:47.284Z,4.30
2018-02-20T12:23:14.865Z,4.20
2018-02-20T12:25:42.454Z,4.20
2018-02-20T12:28:10.798Z,4.40
2018-02-20T12:30:38.357Z,4.40
2018-02-20T12:33:05.938Z,4.30
2018-02-20T12:35:34.278Z,4.10
2018-02-20T12:38:01.853Z,4.10
2018-02-20T12:40:29.442Z,4.00
2018-02-20T12:42:57.025Z,3.90
2018-02-20T12:45:24.625Z,3.70
2018-02-20T12:47:52.236Z,3.50
2018-02-20T12:50:19.828Z,3.40
2018-02-20T12:52:47.410Z,3.40
2018-02-20T12:55:15.087Z,3.30
2018-02-20T12:57:42.708Z,3.40
2018-02-20T13:00:10.270Z,3.30
2018-02-20T13:02:37.848Z,3.30
2018-02-20T13:05:05.439Z,3.20
2018-02-20T13:07:33.795Z,3.30
2018-02-20T13:10:02.149Z,3.20
2018-02-20T13:12:29.757Z,3.20
2018-02-20T13:14:58.104Z,3.20
2018-02-20T13:17:25.672Z,3.10
2018-02-20T13:19:53.269Z,3.00
2018-02-20T13:22:20.858Z,3.00
2018-02-20T13:24:48.436Z,3.00
2018-02-20T13:27:16.018Z,3.10
2018-02-20T13:29:43.575Z,3.10
2018-02-20T13:32:11.152Z,3.10
2018-02-20T13:34:39.476Z,3.00
2018-02-20T13:37:07.035Z,3.00
2018-02-20T13:39:34.621Z,2.90
2018-02-20T13:42:02.202Z,2.90
2018-02-20T13:44:29.762Z,2.90
2018-02-20T13:46:57.317Z,3.00
2018-02-20T13:49:24.916Z,3.00
2018-02-20T13:51:52.495Z,3.00
2018-02-20T13:54:20.063Z,3.10
2018-02-20T13:56:47.658Z,3.10
2018-02-20T13:59:15.219Z,3.10
2018-02-20T14:01:42.795Z,3.10
2018-02-20T14:04:11.150Z,3.00
2018-02-20T14:06:38.722Z,3.00
2018-02-20T14:09:07.078Z,2.80
2018-02-20T14:11:34.668Z,2.80
2018-02-20T14:14:03.011Z,2.80
2018-02-20T14:16:30.613Z,2.70
2018-02-20T14:18:58.214Z,2.70
2018-02-20T14:21:25.829Z,2.80
2018-02-20T14:23:54.159Z,2.70
2018-02-20T14:26:21.713Z,2.70
2018-02-20T14:28:49.317Z,2.50
2018-02-20T14:31:17.655Z,2.70
2018-02-20T14:33:45.298Z,2.70
2018-02-20T14:36:12.860Z,2.80
2018-02-20T14:38:40.436Z,2.90
2018-02-20T14:41:08.052Z,2.90
2018-02-20T14:43:36.403Z,2.90
2018-02-20T14:46:03.975Z,2.90
2018-02-20T14:48:32.336Z,2.80
2018-02-20T14:50:59.905Z,2.80
2018-02-20T14:53:27.632Z,2.70
2018-02-20T14:55:55.308Z,2.70
2018-02-20T14:58:22.886Z,2.70
2018-02-20T15:00:51.265Z,2.70
2018-02-20T15:03:18.857Z,2.70
2018-02-20T15:05:46.423Z,2.70
2018-02-20T15:08:14.035Z,2.80
2018-02-20T15:10:41.608Z,2.80
2018-02-20T15:13:09.223Z,2.80
2018-02-20T15:15:36.800Z,2.70
2018-02-20T15:18:04.367Z,2.70
2018-02-20T15:20:31.982Z,2.70
2018-02-20T15:22:59.575Z,2.70
2018-02-20T15:25:27.190Z,2.60
2018-02-20T15:27:55.528Z,2.70
2018-02-20T15:30:23.106Z,2.70
2018-02-20T15:32:50.697Z,2.60
2018-02-20T15:35:18.273Z,2.60
2018-02-20T15:37:45.870Z,2.50
2018-02-20T15:40:13.439Z,2.50
2018-02-20T15:42:41.010Z,2.50
2018-02-20T15:45:08.623Z,2.50
2018-02-20T15:47:36.196Z,2.50
2018-02-20T15:50:03.772Z,2.50
2018-02-20T15:52:31.346Z,2.50
2018-02-20T15:54:58.925Z,2.60
2018-02-20T15:57:27.287Z,2.40
2018-02-20T15:59:55.634Z,2.40
2018-02-20T16:02:23.207Z,2.40
2018-02-20T16:04:50.827Z,2.40
2018-02-20T16:07:18.425Z,2.30
2018-02-20T16:09:45.988Z,2.40
2018-02-20T16:12:13.587Z,2.40
2018-02-20T16:14:41.199Z,2.50
2018-02-20T16:17:08.828Z,2.50
2018-02-20T16:19:36.401Z,2.50
2018-02-20T16:22:03.995Z,2.50
2018-02-20T16:24:31.566Z,2.50
2018-02-20T16:26:59.147Z,2.40
2018-02-20T16:29:26.785Z,2.40
2018-02-20T16:31:54.342Z,2.40
2018-02-20T16:34:21.935Z,2.40
2018-02-20T16:36:49.498Z,2.40
2018-02-20T16:39:17.107Z,2.50
2018-02-20T16:41:44.687Z,2.50
2018-02-20T16:44:12.258Z,2.60
2018-02-20T16:46:40.603Z,2.60
2018-02-20T16:49:08.198Z,2.60
2018-02-20T16:51:36.592Z,2.60
2018-02-20T16:54:04.163Z,2.60
2018-02-20T16:56:31.731Z,2.50
2018-02-20T16:58:59.313Z,2.50
2018-02-20T17:01:26.871Z,2.40
2018-02-20T17:03:54.444Z,2.40
2018-02-20T17:06:22.113Z,2.40
2018-02-20T17:08:49.752Z,2.30
2018-02-20T17:11:17.320Z,2.20
2018-02-20T17:13:44.887Z,2.30
2018-02-20T17:16:12.512Z,2.30
2018-02-20T17:18:40.084Z,2.30
2018-02-20T17:21:07.666Z,2.20
2018-02-20T17:23:35.261Z,2.20
2018-02-20T17:26:03.615Z,2.20
2018-02-20T17:28:31.210Z,2.20
2018-02-20T17:30:59.526Z,2.00
2018-02-20T17:33:27.904Z,2.00
2018-02-20T17:35:55.467Z,2.00
2018-02-20T17:38:23.148Z,1.90
2018-02-20T17:40:50.749Z,1.90
2018-02-20T17:43:19.092Z,2.00
2018-02-20T17:45:46.677Z,2.00
2018-02-20T17:48:14.998Z,2.00
2018-02-20T17:50:42.600Z,1.90
2018-02-20T17:53:10.167Z,2.00
2018-02-20T17:55:38.526Z,2.10
2018-02-20T17:58:06.125Z,2.10
2018-02-20T18:00:34.466Z,2.20
2018-02-20T18:03:02.032Z,2.20
2018-02-20T18:05:29.627Z,2.10
2018-02-20T18:07:57.188Z,2.10
2018-02-20T18:10:24.784Z,2.10
2018-02-20T18:12:52.352Z,2.10
2018-02-20T18:15:19.994Z,2.10
2018-02-20T18:17:49.494Z,2.10
2018-02-20T18:20:17.148Z,2.00
2018-02-20T18:22:44.767Z,2.10
2018-02-20T18:25:13.156Z,2.20
2018-02-20T18:27:41.497Z,2.20
2018-02-20T18:30:09.066Z,2.20
2018-02-20T18:32:36.653Z,2.20
2018-02-20T18:35:04.982Z,2.30
2018-02-20T18:37:32.548Z,2.20
2018-02-20T18:40:00.383Z,2.20
2018-02-20T18:42:27.999Z,2.20
2018-02-20T18:44:55.591Z,2.00
2018-02-20T18:47:23.160Z,2.00
2018-02-20T18:49:50.846Z,2.00
2018-02-20T18:52:18.522Z,1.90
2018-02-20T18:54:46.094Z,1.90
2018-02-20T18:57:13.730Z,1.80
2018-02-20T18:59:41.294Z,1.80
2018-02-20T19:02:09.642Z,1.70
2018-02-20T19:04:37.339Z,1.70
2018-02-20T19:07:04.953Z,1.70
2018-02-20T19:09:33.338Z,1.60
2018-02-20T19:12:00.909Z,1.60
2018-02-20T19:14:28.475Z,1.70
2018-02-20T19:16:56.092Z,1.80
2018-02-20T19:19:23.676Z,1.70
2018-02-20T19:21:52.146Z,1.80
2018-02-20T19:24:19.807Z,1.80
2018-02-20T19:26:47.410Z,1.70
2018-02-20T19:29:14.985Z,1.70
2018-02-20T19:31:42.603Z,1.80
2018-02-20T19:34:10.177Z,1.80
2018-02-20T19:36:37.776Z,1.80
2018-02-20T19:39:05.375Z,1.70
2018-02-20T19:41:33.716Z,1.90
2018-02-20T19:44:01.306Z,1.80
2018-02-20T19:46:29.657Z,2.00
2018-02-20T19:48:57.264Z,1.90
2018-02-20T19:51:24.859Z,2.00
2018-02-20T19:53:52.412Z,2.00
2018-02-20T19:56:20.035Z,2.00
2018-02-20T19:58:48.385Z,1.90
2018-02-20T20:01:15.952Z,1.80
2018-02-20T20:03:44.354Z,1.90
2018-02-20T20:06:11.923Z,1.80
2018-02-20T20:08:39.487Z,1.90
2018-02-20T20:11:07.071Z,1.90
2018-02-20T20:13:34.652Z,1.80
2018-02-20T20:16:02.246Z,1.80
2018-02-20T20:18:30.590Z,1.80
2018-02-20T20:20:58.193Z,1.80
2018-02-20T20:23:26.559Z,1.80
2018-02-20T20:25:54.909Z,1.80
2018-02-20T20:28:22.488Z,1.80
2018-02-20T20:30:50.837Z,1.70
2018-02-20T20:33:18.403Z,1.70
2018-02-20T20:35:46.032Z,1.70
2018-02-20T20:38:13.623Z,1.70
2018-02-20T20:40:41.185Z,1.70
2018-02-20T20:43:08.870Z,1.70
2018-02-20T20:45:36.404Z,1.70
2018-02-20T20:48:03.984Z,1.70
2018-02-20T20:50:31.579Z,1.70
2018-02-20T20:52:59.150Z,1.70
2018-02-20T20:55:26.726Z,1.70
2018-02-20T20:57:54.296Z,1.60
2018-02-20T21:00:21.845Z,1.50
2018-02-20T21:02:49.447Z,1.50
2018-02-20T21:05:17.023Z,1.50
2018-02-20T21:07:45.366Z,1.40
2018-02-20T21:10:12.958Z,1.30
2018-02-20T21:12:41.276Z,1.40
2018-02-20T21:15:08.875Z,1.40
2018-02-20T21:17:36.438Z,1.30
2018-02-20T21:20:04.005Z,1.30
2018-02-20T21:22:32.353Z,1.30
2018-02-20T21:24:59.918Z,1.30
2018-02-20T21:27:27.516Z,1.40
2018-02-20T21:29:55.856Z,1.40
2018-02-20T21:32:23.442Z,1.30
2018-02-20T21:34:51.802Z,1.40
2018-02-20T21:37:19.382Z,1.30
2018-02-20T21:39:47.719Z,1.40
2018-02-20T21:42:15.305Z,1.30
2018-02-20T21:44:42.948Z,1.30
2018-02-20T21:47:10.645Z,1.30
2018-02-20T21:49:39.010Z,1.30
2018-02-20T21:52:06.573Z,1.20
2018-02-20T21:54:34.144Z,1.20
2018-02-20T21:57:02.509Z,1.30
2018-02-20T21:59:30.094Z,1.30
2018-02-20T22:01:58.413Z,1.20
2018-02-20T22:04:26.006Z,1.20
2018-02-20T22:06:53.582Z,1.30
2018-02-20T22:09:21.904Z,1.20
2018-02-20T22:11:49.500Z,1.20
2018-02-20T22:14:17.067Z,1.10
2018-02-20T22:16:44.651Z,1.00
2018-02-20T22:19:12.224Z,0.90
2018-02-20T22:21:39.791Z,0.80
2018-02-20T22:24:07.428Z,0.90
2018-02-20T22:26:35.025Z,0.70
2018-02-20T22:29:02.591Z,0.70
2018-02-20T22:31:30.203Z,0.60
2018-02-20T22:33:58.529Z,0.60
2018-02-20T22:36:26.100Z,0.50
2018-02-20T22:38:53.704Z,0.50
2018-02-20T22:41:22.059Z,0.50
2018-02-20T22:43:49.638Z,0.50
2018-02-20T22:46:17.978Z,0.50
2018-02-20T22:48:45.585Z,0.50
